createdAt,value
2022-09-30T00:00:31.073Z,23.94
2022-09-30T00:01:34.463Z,23.93
2022-09-30T00:02:36.364Z,23.68
2022-09-30T00:03:38.308Z,23.72
2022-09-30T00:04:40.202Z,23.73
2022-09-30T00:05:41.975Z,23.68
2022-09-30T00:06:44.144Z,23.62
2022-09-30T00:07:46.059Z,23.70
2022-09-30T00:08:48.196Z,23.91
2022-09-30T00:09:50.401Z,23.71
2022-09-30T00:11:07.723Z,23.73
2022-09-30T00:12:10.801Z,23.28
2022-09-30T00:13:12.575Z,23.73
2022-09-30T00:14:18.109Z,23.46
2022-09-30T00:15:20.631Z,23.69
2022-09-30T00:16:24.930Z,23.66
2022-09-30T00:17:28.334Z,23.16
2022-09-30T00:18:31.072Z,23.82
2022-09-30T00:19:32.884Z,22.85
2022-09-30T00:20:35.339Z,23.48
2022-09-30T00:21:37.570Z,23.71
2022-09-30T00:22:40.036Z,23.76
2022-09-30T00:23:42.894Z,23.74
2022-09-30T00:24:44.822Z,23.76
2022-09-30T00:25:46.636Z,23.54
2022-09-30T00:26:48.500Z,23.84
2022-09-30T00:27:50.267Z,23.06
2022-09-30T00:28:54.779Z,23.82
2022-09-30T00:29:56.535Z,23.66
2022-09-30T00:31:03.628Z,23.56
2022-09-30T00:32:05.489Z,23.55
2022-09-30T00:33:07.756Z,23.63
2022-09-30T00:34:11.683Z,23.68
2022-09-30T00:35:13.564Z,23.47
2022-09-30T00:36:15.337Z,23.68
2022-09-30T00:37:17.177Z,23.32
2022-09-30T00:38:18.965Z,23.62
2022-09-30T00:39:26.244Z,23.46
2022-09-30T00:40:28.289Z,23.82
2022-09-30T00:41:30.497Z,23.62
2022-09-30T00:42:32.401Z,23.57
2022-09-30T00:43:51.593Z,23.64
2022-09-30T00:45:05.528Z,23.39
2022-09-30T00:46:16.895Z,23.15
2022-09-30T00:47:40.803Z,23.85
2022-09-30T00:48:43.437Z,23.68
2022-09-30T00:49:45.559Z,23.47
2022-09-30T00:50:55.594Z,22.96
2022-09-30T00:51:58.134Z,23.59
2022-09-30T00:53:12.430Z,23.56
2022-09-30T00:54:20.453Z,22.89
2022-09-30T00:55:38.933Z,23.63
2022-09-30T00:56:45.626Z,23.59
2022-09-30T00:57:47.536Z,23.82
2022-09-30T00:59:06.401Z,23.53
2022-09-30T01:00:08.776Z,23.58
2022-09-30T01:01:11.490Z,23.61
2022-09-30T01:02:14.612Z,23.68
2022-09-30T01:03:18.092Z,23.62
2022-09-30T01:04:23.639Z,23.15
2022-09-30T01:05:26.786Z,23.65
2022-09-30T01:06:28.952Z,23.64
2022-09-30T01:07:30.772Z,23.60
2022-09-30T01:08:35.829Z,23.34
2022-09-30T01:09:40.983Z,23.51
2022-09-30T01:10:42.848Z,23.50
2022-09-30T01:11:45.068Z,23.43
2022-09-30T01:12:47.093Z,23.52
2022-09-30T01:13:54.479Z,23.09
2022-09-30T01:14:59.868Z,23.41
2022-09-30T01:16:22.892Z,23.50
2022-09-30T01:17:45.780Z,23.82
2022-09-30T01:19:09.116Z,23.80
2022-09-30T01:20:32.603Z,23.85
2022-09-30T01:21:55.716Z,23.85
2022-09-30T01:23:00.391Z,23.81
2022-09-30T01:24:28.539Z,23.82
2022-09-30T01:25:48.969Z,23.81
2022-09-30T01:26:57.971Z,23.80
2022-09-30T01:28:31.233Z,23.79
2022-09-30T01:29:45.077Z,23.79
2022-09-30T01:31:17.645Z,23.82
2022-09-30T01:32:41.295Z,23.79
2022-09-30T01:34:13.654Z,23.81
2022-09-30T01:35:33.976Z,23.83
2022-09-30T01:36:46.125Z,23.79
2022-09-30T01:37:59.188Z,23.67
2022-09-30T01:39:13.299Z,23.74
2022-09-30T01:40:25.972Z,23.73
2022-09-30T01:41:28.287Z,23.72
2022-09-30T01:42:46.804Z,23.69
2022-09-30T01:44:06.279Z,23.68
2022-09-30T01:45:29.117Z,23.26
2022-09-30T01:46:44.561Z,22.94
2022-09-30T01:48:01.703Z,23.53
2022-09-30T01:49:27.406Z,23.76
2022-09-30T01:50:59.864Z,23.61
2022-09-30T01:52:13.459Z,23.75
2022-09-30T01:53:31.444Z,23.45
2022-09-30T01:54:55.649Z,23.74
2022-09-30T01:56:12.550Z,23.70
2022-09-30T01:57:26.870Z,23.51
2022-09-30T01:58:43.699Z,23.69
2022-09-30T01:59:52.933Z,23.68
2022-09-30T02:01:00.988Z,23.34
2022-09-30T02:02:09.452Z,23.62
2022-09-30T02:03:33.387Z,23.64
2022-09-30T02:04:43.274Z,23.64
2022-09-30T02:06:02.443Z,23.67
2022-09-30T02:07:11.014Z,23.51
2022-09-30T02:08:25.327Z,23.57
2022-09-30T02:09:38.942Z,23.31
2022-09-30T02:10:57.912Z,23.48
2022-09-30T02:12:04.935Z,22.80
2022-09-30T02:13:16.912Z,23.55
2022-09-30T02:14:37.605Z,23.36
2022-09-30T02:15:44.344Z,22.77
2022-09-30T02:16:52.882Z,23.46
2022-09-30T02:18:04.195Z,23.61
2022-09-30T02:19:11.451Z,23.61
2022-09-30T02:20:18.404Z,23.44
2022-09-30T02:21:26.194Z,23.38
2022-09-30T02:22:44.930Z,23.20
2022-09-30T02:23:49.907Z,23.44
2022-09-30T02:24:59.393Z,23.39
2022-09-30T02:26:15.832Z,23.62
2022-09-30T02:27:25.305Z,23.57
2022-09-30T02:28:29.306Z,23.29
2022-09-30T02:29:42.326Z,23.37
2022-09-30T02:30:49.491Z,23.34
2022-09-30T02:31:56.052Z,23.58
2022-09-30T02:33:02.233Z,23.36
2022-09-30T02:34:12.024Z,23.57
2022-09-30T02:35:58.341Z,23.62
2022-09-30T02:37:10.800Z,23.50
2022-09-30T02:38:24.211Z,23.48
2022-09-30T02:39:36.112Z,22.82
2022-09-30T02:40:52.852Z,23.63
2022-09-30T02:42:08.327Z,23.60
2022-09-30T02:43:10.853Z,23.31
2022-09-30T02:44:13.700Z,23.36
2022-09-30T02:45:20.224Z,23.11
2022-09-30T02:46:24.618Z,23.55
2022-09-30T02:47:29.051Z,23.54
2022-09-30T02:48:49.293Z,23.59
2022-09-30T02:50:15.643Z,23.57
2022-09-30T02:51:28.129Z,23.61
2022-09-30T02:52:33.256Z,23.58
2022-09-30T02:53:51.328Z,23.48
2022-09-30T02:55:15.084Z,23.37
2022-09-30T02:56:41.025Z,23.48
2022-09-30T02:58:11.730Z,23.59
2022-09-30T02:59:14.785Z,23.52
2022-09-30T03:00:16.941Z,23.43
2022-09-30T03:01:18.904Z,23.30
2022-09-30T03:02:21.684Z,22.99
2022-09-30T03:03:32.610Z,23.06
2022-09-30T03:04:36.261Z,23.03
2022-09-30T03:05:38.239Z,23.40
2022-09-30T03:06:40.295Z,23.39
2022-09-30T03:07:42.105Z,23.05
2022-09-30T03:08:44.667Z,23.29
2022-09-30T03:09:46.484Z,23.11
2022-09-30T03:10:51.389Z,23.24
2022-09-30T03:12:02.241Z,23.19
2022-09-30T03:13:30.529Z,23.29
2022-09-30T03:14:46.887Z,23.22
2022-09-30T03:16:25.739Z,23.60
2022-09-30T03:17:41.284Z,23.46
2022-09-30T03:19:11.064Z,23.60
2022-09-30T03:20:53.203Z,23.65
2022-09-30T03:22:04.396Z,23.64
2022-09-30T03:23:14.897Z,23.61
2022-09-30T03:24:49.343Z,23.58
2022-09-30T03:25:54.179Z,23.60
2022-09-30T03:27:17.314Z,23.54
2022-09-30T03:28:34.695Z,23.42
2022-09-30T03:29:42.331Z,23.54
2022-09-30T03:30:58.242Z,23.04
2022-09-30T03:32:28.023Z,23.57
2022-09-30T03:33:54.002Z,23.39
2022-09-30T03:35:17.446Z,23.41
2022-09-30T03:36:36.056Z,23.34
2022-09-30T03:37:58.301Z,23.34
2022-09-30T03:39:15.754Z,23.57
2022-09-30T03:40:41.623Z,23.58
2022-09-30T03:41:52.376Z,23.54
2022-09-30T03:43:03.685Z,23.51
2022-09-30T03:44:13.747Z,23.35
2022-09-30T03:45:26.915Z,23.49
2022-09-30T03:46:40.319Z,23.34
2022-09-30T03:47:47.504Z,23.42
2022-09-30T03:48:53.977Z,23.24
2022-09-30T03:50:00.857Z,23.45
2022-09-30T03:51:04.228Z,23.08
2022-09-30T03:52:09.193Z,23.42
2022-09-30T03:53:12.841Z,23.42
2022-09-30T03:54:15.248Z,23.06
2022-09-30T03:55:19.603Z,23.40
2022-09-30T03:56:30.142Z,22.90
2022-09-30T03:57:31.882Z,23.22
2022-09-30T03:58:34.854Z,23.41
2022-09-30T03:59:36.651Z,22.82
2022-09-30T04:00:39.936Z,23.18
2022-09-30T04:01:41.870Z,23.27
2022-09-30T04:02:43.607Z,23.05
2022-09-30T04:03:45.386Z,23.06
2022-09-30T04:04:47.155Z,23.17
2022-09-30T04:05:49.774Z,23.19
2022-09-30T04:06:51.693Z,22.34
2022-09-30T04:07:53.459Z,23.13
2022-09-30T04:08:55.221Z,22.88
2022-09-30T04:09:57.011Z,23.17
2022-09-30T04:10:58.754Z,23.16
2022-09-30T04:12:00.637Z,23.27
2022-09-30T04:13:02.345Z,23.02
2022-09-30T04:14:04.159Z,23.38
2022-09-30T04:15:06.521Z,23.24
2022-09-30T04:16:08.548Z,22.31
2022-09-30T04:17:10.863Z,23.37
2022-09-30T04:18:12.706Z,22.57
2022-09-30T04:19:14.400Z,22.61
2022-09-30T04:20:16.270Z,23.12
2022-09-30T04:21:17.989Z,22.54
2022-09-30T04:22:23.133Z,22.93
2022-09-30T04:23:27.392Z,23.13
2022-09-30T04:24:29.545Z,22.51
2022-09-30T04:25:31.470Z,23.22
2022-09-30T04:26:33.283Z,23.21
2022-09-30T04:27:35.017Z,23.10
2022-09-30T04:28:36.806Z,23.27
2022-09-30T04:29:38.572Z,23.03
2022-09-30T04:30:40.249Z,23.25
2022-09-30T04:31:42.519Z,22.47
2022-09-30T04:32:47.602Z,23.14
2022-09-30T04:33:50.742Z,22.45
2022-09-30T04:34:54.381Z,23.07
2022-09-30T04:35:57.395Z,23.37
2022-09-30T04:36:59.273Z,23.37
2022-09-30T04:38:01.308Z,22.80
2022-09-30T04:39:03.856Z,23.37
2022-09-30T04:40:06.175Z,23.06
2022-09-30T04:41:08.833Z,23.35
2022-09-30T04:42:11.418Z,23.35
2022-09-30T04:43:13.355Z,23.29
2022-09-30T04:44:15.257Z,22.99
2022-09-30T04:45:17.060Z,23.09
2022-09-30T04:46:20.804Z,23.15
2022-09-30T04:47:25.333Z,22.42
2022-09-30T04:48:30.025Z,23.20
2022-09-30T04:49:31.716Z,23.07
2022-09-30T04:50:34.170Z,23.32
2022-09-30T04:51:36.561Z,23.35
2022-09-30T04:52:38.678Z,23.09
2022-09-30T04:53:40.960Z,23.34
2022-09-30T04:54:42.752Z,23.13
2022-09-30T04:55:45.713Z,23.09
2022-09-30T04:56:47.427Z,22.90
2022-09-30T04:57:50.447Z,23.24
2022-09-30T04:58:54.213Z,23.09
2022-09-30T04:59:55.938Z,23.33
2022-09-30T05:01:07.090Z,23.06
2022-09-30T05:02:10.028Z,23.06
2022-09-30T05:03:11.793Z,23.34
2022-09-30T05:04:13.646Z,23.17
2022-09-30T05:05:15.458Z,23.31
2022-09-30T05:06:17.569Z,22.37
2022-09-30T05:07:19.316Z,23.06
2022-09-30T05:08:23.043Z,23.22
2022-09-30T05:09:24.973Z,23.09
2022-09-30T05:10:26.893Z,23.29
2022-09-30T05:11:29.590Z,23.13
2022-09-30T05:12:32.094Z,22.93
2022-09-30T05:13:36.808Z,22.88
2022-09-30T05:14:38.512Z,23.10
2022-09-30T05:15:40.219Z,23.29
2022-09-30T05:16:41.990Z,23.22
2022-09-30T05:17:43.888Z,23.46
2022-09-30T05:18:46.435Z,23.31
2022-09-30T05:19:48.315Z,23.26
2022-09-30T05:20:51.500Z,23.54
2022-09-30T05:21:53.267Z,23.45
2022-09-30T05:22:56.422Z,23.61
2022-09-30T05:23:58.586Z,23.34
2022-09-30T05:25:00.334Z,23.60
2022-09-30T05:26:03.518Z,23.60
2022-09-30T05:27:05.245Z,23.53
2022-09-30T05:28:07.141Z,23.65
2022-09-30T05:29:10.187Z,23.47
2022-09-30T05:30:12.247Z,23.70
2022-09-30T05:31:14.649Z,23.64
2022-09-30T05:32:18.365Z,23.80
2022-09-30T05:33:20.077Z,22.95
2022-09-30T05:34:21.944Z,23.73
2022-09-30T05:35:24.022Z,24.00
2022-09-30T05:36:25.863Z,23.50
2022-09-30T05:37:27.593Z,24.06
2022-09-30T05:38:29.869Z,24.00
2022-09-30T05:39:32.025Z,23.81
2022-09-30T05:40:34.060Z,23.67
2022-09-30T05:41:36.018Z,23.39
2022-09-30T05:42:37.885Z,23.22
2022-09-30T05:43:41.690Z,24.20
2022-09-30T05:44:43.517Z,24.03
2022-09-30T05:45:56.413Z,23.37
2022-09-30T05:46:59.053Z,23.16
2022-09-30T05:48:01.065Z,24.06
2022-09-30T05:49:02.956Z,24.02
2022-09-30T05:50:05.834Z,24.18
2022-09-30T05:51:07.856Z,24.19
2022-09-30T05:52:09.604Z,24.16
2022-09-30T05:53:11.312Z,24.12
2022-09-30T05:54:13.305Z,24.29
2022-09-30T05:55:16.424Z,23.99
2022-09-30T05:56:18.544Z,24.38
2022-09-30T05:57:21.073Z,24.12
2022-09-30T05:58:23.331Z,24.14
2022-09-30T05:59:25.217Z,24.35
2022-09-30T06:00:26.946Z,24.29
2022-09-30T06:01:29.019Z,24.23
2022-09-30T06:02:30.893Z,24.46
2022-09-30T06:03:33.046Z,24.27
2022-09-30T06:04:34.763Z,24.19
2022-09-30T06:05:36.517Z,24.50
2022-09-30T06:06:39.011Z,24.63
2022-09-30T06:07:40.705Z,24.65
2022-09-30T06:08:43.834Z,24.66
2022-09-30T06:09:46.474Z,24.43
2022-09-30T06:10:48.210Z,24.23
2022-09-30T06:11:49.974Z,24.58
2022-09-30T06:12:52.279Z,23.93
2022-09-30T06:13:54.034Z,24.41
2022-09-30T06:14:55.944Z,24.50
2022-09-30T06:15:59.435Z,24.46
2022-09-30T06:17:01.351Z,24.47
2022-09-30T06:18:03.070Z,24.68
2022-09-30T06:19:06.271Z,24.14
2022-09-30T06:20:10.061Z,24.14
2022-09-30T06:21:13.924Z,24.48
2022-09-30T06:22:16.742Z,24.43
2022-09-30T06:23:18.608Z,24.61
2022-09-30T06:24:20.383Z,23.86
2022-09-30T06:25:22.494Z,24.01
2022-09-30T06:26:24.373Z,24.76
2022-09-30T06:27:26.096Z,24.60
2022-09-30T06:28:28.328Z,24.59
2022-09-30T06:29:30.501Z,24.54
2022-09-30T06:30:35.251Z,23.97
2022-09-30T06:31:37.410Z,24.80
2022-09-30T06:32:39.500Z,24.51
2022-09-30T06:33:42.325Z,23.98
2022-09-30T06:34:44.957Z,24.82
2022-09-30T06:35:47.587Z,23.83
2022-09-30T06:36:49.323Z,24.68
2022-09-30T06:37:52.041Z,24.36
2022-09-30T06:38:54.437Z,24.47
2022-09-30T06:39:56.158Z,24.48
2022-09-30T06:40:59.695Z,24.35
2022-09-30T06:42:01.376Z,24.75
2022-09-30T06:43:03.492Z,24.48
2022-09-30T06:44:05.643Z,24.13
2022-09-30T06:45:08.687Z,24.43
2022-09-30T06:46:17.645Z,24.60
2022-09-30T06:47:25.588Z,24.22
2022-09-30T06:48:37.422Z,24.71
2022-09-30T06:49:49.085Z,24.65
2022-09-30T06:51:01.296Z,24.75
2022-09-30T06:52:04.167Z,24.72
2022-09-30T06:53:08.376Z,24.17
2022-09-30T06:54:11.235Z,24.87
2022-09-30T06:55:13.141Z,24.63
2022-09-30T06:56:18.348Z,23.82
2022-09-30T06:57:22.678Z,24.39
2022-09-30T06:58:25.427Z,24.69
2022-09-30T06:59:27.234Z,24.71
2022-09-30T07:00:29.117Z,24.28
2022-09-30T07:01:31.082Z,24.76
2022-09-30T07:02:34.571Z,23.96
2022-09-30T07:03:36.542Z,24.64
2022-09-30T07:04:38.408Z,24.65
2022-09-30T07:05:40.167Z,24.45
2022-09-30T07:06:42.587Z,24.38
2022-09-30T07:07:44.801Z,24.85
2022-09-30T07:08:47.566Z,24.59
2022-09-30T07:09:49.433Z,24.71
2022-09-30T07:10:53.123Z,24.56
2022-09-30T07:11:54.947Z,24.63
2022-09-30T07:12:56.892Z,24.42
2022-09-30T07:13:58.708Z,24.09
2022-09-30T07:15:00.632Z,24.32
2022-09-30T07:16:02.553Z,24.63
2022-09-30T07:17:06.376Z,24.72
2022-09-30T07:18:08.481Z,24.87
2022-09-30T07:19:11.128Z,24.37
2022-09-30T07:20:15.009Z,24.20
2022-09-30T07:21:17.329Z,24.79
2022-09-30T07:22:32.165Z,24.41
2022-09-30T07:23:34.099Z,24.00
2022-09-30T07:24:36.514Z,24.17
2022-09-30T07:25:38.767Z,24.48
2022-09-30T07:26:40.624Z,23.88
2022-09-30T07:27:42.643Z,24.87
2022-09-30T07:28:45.171Z,24.87
2022-09-30T07:30:08.207Z,24.69
2022-09-30T07:31:32.431Z,24.71
2022-09-30T07:32:35.758Z,24.95
2022-09-30T07:33:38.902Z,24.44
2022-09-30T07:34:44.258Z,24.75
2022-09-30T07:35:53.695Z,24.70
2022-09-30T07:36:55.519Z,24.64
2022-09-30T07:37:57.261Z,24.66
2022-09-30T07:38:59.019Z,24.17
2022-09-30T07:40:00.937Z,24.61
2022-09-30T07:41:09.202Z,24.58
2022-09-30T07:42:12.552Z,24.86
2022-09-30T07:43:17.189Z,24.85
2022-09-30T07:44:19.226Z,24.49
2022-09-30T07:45:21.052Z,24.11
2022-09-30T07:46:29.826Z,24.84
2022-09-30T07:47:31.570Z,24.63
2022-09-30T07:48:39.521Z,24.61
2022-09-30T07:49:42.415Z,24.27
2022-09-30T07:50:45.933Z,24.61
2022-09-30T07:51:47.716Z,23.90
2022-09-30T07:52:49.475Z,24.79
2022-09-30T07:53:55.991Z,24.18
2022-09-30T07:54:57.707Z,24.42
2022-09-30T07:56:04.656Z,24.57
2022-09-30T07:57:11.114Z,24.61
2022-09-30T07:58:13.601Z,24.58
2022-09-30T07:59:15.566Z,24.62
2022-09-30T08:00:41.155Z,24.67
2022-09-30T08:01:40.802Z,24.89
2022-09-30T08:02:42.655Z,24.78
2022-09-30T08:03:47.165Z,24.40
2022-09-30T08:04:49.050Z,24.63
2022-09-30T08:05:51.037Z,24.81
2022-09-30T08:06:57.313Z,24.84
2022-09-30T08:07:59.011Z,24.63
2022-09-30T08:09:00.834Z,24.58
2022-09-30T08:10:02.584Z,24.59
2022-09-30T08:11:05.645Z,24.74
2022-09-30T08:12:07.754Z,24.83
2022-09-30T08:13:10.753Z,23.93
2022-09-30T08:14:22.118Z,24.54
2022-09-30T08:15:23.932Z,24.41
2022-09-30T08:16:26.197Z,24.17
2022-09-30T08:17:27.941Z,24.74
2022-09-30T08:18:30.665Z,24.25
2022-09-30T08:19:36.282Z,24.80
2022-09-30T08:20:38.051Z,24.59
2022-09-30T08:21:39.842Z,24.58
2022-09-30T08:22:41.640Z,24.50
2022-09-30T08:23:43.381Z,24.41
2022-09-30T08:24:45.124Z,23.92
2022-09-30T08:25:46.843Z,23.80
2022-09-30T08:26:48.787Z,24.70
2022-09-30T08:27:51.218Z,24.45
2022-09-30T08:28:53.182Z,24.66
2022-09-30T08:29:57.371Z,24.62
2022-09-30T08:31:06.011Z,24.69
2022-09-30T08:32:07.822Z,24.01
2022-09-30T08:33:09.658Z,24.54
2022-09-30T08:34:11.544Z,24.70
2022-09-30T08:35:13.267Z,24.79
2022-09-30T08:36:21.009Z,24.78
2022-09-30T08:37:23.933Z,24.34
2022-09-30T08:38:25.635Z,24.59
2022-09-30T08:39:27.352Z,24.60
2022-09-30T08:40:33.322Z,24.41
2022-09-30T08:41:40.565Z,24.79
2022-09-30T08:42:54.259Z,24.79
2022-09-30T08:44:01.942Z,24.83
2022-09-30T08:45:38.886Z,24.85
2022-09-30T08:47:22.450Z,24.92
2022-09-30T08:49:08.927Z,24.94
2022-09-30T08:50:23.318Z,24.93
2022-09-30T08:51:36.445Z,24.52
2022-09-30T08:53:09.331Z,24.93
2022-09-30T08:54:15.396Z,24.89
2022-09-30T08:55:44.592Z,24.90
2022-09-30T08:56:47.350Z,24.88
2022-09-30T08:57:50.484Z,24.54
2022-09-30T08:59:18.469Z,24.65
2022-09-30T09:00:21.572Z,24.25
2022-09-30T09:01:33.511Z,24.56
2022-09-30T09:02:44.873Z,24.82
2022-09-30T09:03:47.316Z,24.41
2022-09-30T09:04:54.509Z,24.78
2022-09-30T09:06:05.384Z,24.79
2022-09-30T09:07:38.957Z,24.84
2022-09-30T09:09:02.289Z,24.88
2022-09-30T09:10:24.966Z,24.66
2022-09-30T09:11:46.469Z,24.84
2022-09-30T09:13:00.136Z,24.87
2022-09-30T09:14:20.047Z,24.86
2022-09-30T09:15:26.790Z,24.29
2022-09-30T09:17:03.608Z,24.77
2022-09-30T09:18:25.829Z,24.86
2022-09-30T09:19:53.118Z,24.84
2022-09-30T09:20:56.160Z,24.88
2022-09-30T09:22:02.443Z,24.81
2022-09-30T09:23:09.157Z,24.78
2022-09-30T09:24:21.420Z,24.48
2022-09-30T09:25:28.224Z,24.79
2022-09-30T09:26:36.231Z,24.00
2022-09-30T09:27:43.410Z,24.42
2022-09-30T09:29:25.613Z,24.60
2022-09-30T09:30:36.145Z,24.59
2022-09-30T09:31:38.480Z,23.98
2022-09-30T09:32:41.998Z,24.57
2022-09-30T09:33:44.180Z,23.85
2022-09-30T09:34:51.863Z,24.78
2022-09-30T09:36:14.802Z,24.79
2022-09-30T09:37:53.825Z,24.82
2022-09-30T09:39:01.242Z,24.89
2022-09-30T09:40:10.734Z,24.62
2022-09-30T09:41:39.261Z,24.70
2022-09-30T09:43:03.285Z,24.79
2022-09-30T09:44:17.691Z,24.87
2022-09-30T09:45:29.198Z,24.85
2022-09-30T09:46:40.167Z,24.50
2022-09-30T09:47:47.417Z,24.57
2022-09-30T09:48:51.058Z,24.50
2022-09-30T09:50:01.066Z,24.56
2022-09-30T09:51:14.468Z,24.85
2022-09-30T09:52:43.855Z,24.08
2022-09-30T09:53:49.683Z,24.75
2022-09-30T09:54:53.193Z,24.44
2022-09-30T09:56:00.056Z,24.57
2022-09-30T09:57:15.058Z,23.94
2022-09-30T09:58:19.934Z,24.68
2022-09-30T09:59:21.859Z,24.76
2022-09-30T10:00:45.265Z,24.77
2022-09-30T10:01:54.251Z,24.71
2022-09-30T10:03:12.495Z,24.87
2022-09-30T10:04:19.929Z,24.64
2022-09-30T10:05:30.080Z,24.71
2022-09-30T10:06:45.030Z,24.68
2022-09-30T10:07:46.884Z,24.72
2022-09-30T10:08:56.921Z,24.40
2022-09-30T10:10:24.969Z,24.93
2022-09-30T10:11:27.782Z,24.77
2022-09-30T10:12:30.643Z,24.41
2022-09-30T10:13:38.132Z,24.86
2022-09-30T10:14:46.400Z,24.87
2022-09-30T10:15:51.153Z,24.76
2022-09-30T10:16:59.766Z,24.77
2022-09-30T10:18:01.695Z,23.98
2022-09-30T10:19:18.123Z,24.85
2022-09-30T10:20:37.897Z,24.62
2022-09-30T10:21:39.694Z,24.09
2022-09-30T10:22:41.932Z,24.74
2022-09-30T10:23:43.777Z,24.64
2022-09-30T10:24:45.761Z,24.47
2022-09-30T10:26:16.453Z,24.62
2022-09-30T10:27:34.388Z,24.95
2022-09-30T10:28:46.936Z,24.95
2022-09-30T10:29:48.809Z,24.73
2022-09-30T10:31:11.959Z,24.17
2022-09-30T10:32:13.939Z,24.50
2022-09-30T10:33:42.193Z,24.91
2022-09-30T10:34:44.736Z,24.79
2022-09-30T10:36:09.100Z,24.79
2022-09-30T10:37:20.636Z,24.95
2022-09-30T10:38:26.559Z,24.61
2022-09-30T10:39:35.427Z,24.80
2022-09-30T10:40:37.423Z,24.55
2022-09-30T10:41:39.415Z,24.24
2022-09-30T10:42:42.149Z,24.56
2022-09-30T10:43:45.147Z,24.75
2022-09-30T10:44:55.299Z,24.63
2022-09-30T10:46:24.650Z,24.74
2022-09-30T10:47:26.930Z,24.95
2022-09-30T10:48:33.361Z,24.18
2022-09-30T10:49:46.232Z,24.68
2022-09-30T10:50:55.792Z,24.04
2022-09-30T10:51:59.969Z,24.94
2022-09-30T10:53:24.910Z,24.83
2022-09-30T10:54:48.259Z,24.99
2022-09-30T10:55:50.897Z,24.78
2022-09-30T10:56:53.366Z,24.85
2022-09-30T10:57:58.890Z,24.75
2022-09-30T10:59:03.476Z,24.66
2022-09-30T11:00:13.891Z,24.92
2022-09-30T11:01:30.735Z,24.92
2022-09-30T11:02:53.278Z,24.96
2022-09-30T11:04:14.615Z,24.97
2022-09-30T11:05:24.446Z,24.99
2022-09-30T11:06:29.735Z,24.08
2022-09-30T11:07:41.741Z,24.93
2022-09-30T11:09:00.284Z,24.45
2022-09-30T11:10:59.049Z,25.02
2022-09-30T11:12:18.952Z,24.76
2022-09-30T11:13:37.229Z,24.85
2022-09-30T11:14:47.236Z,24.70
2022-09-30T11:15:57.770Z,24.98
2022-09-30T11:17:10.536Z,24.39
2022-09-30T11:18:29.868Z,24.81
2022-09-30T11:19:36.240Z,24.15
2022-09-30T11:20:43.613Z,24.82
2022-09-30T11:22:00.791Z,24.97
2022-09-30T11:23:11.773Z,24.64
2022-09-30T11:24:26.876Z,24.78
2022-09-30T11:25:45.412Z,24.82
2022-09-30T11:27:11.608Z,24.98
2022-09-30T11:28:25.288Z,25.02
2022-09-30T11:30:16.029Z,25.08
2022-09-30T11:31:37.336Z,25.09
2022-09-30T11:33:06.333Z,25.00
2022-09-30T11:34:10.742Z,25.05
2022-09-30T11:35:38.261Z,24.91
2022-09-30T11:37:02.218Z,24.92
2022-09-30T11:38:15.416Z,25.01
2022-09-30T11:39:48.383Z,25.01
2022-09-30T11:41:07.437Z,24.81
2022-09-30T11:42:17.994Z,25.03
2022-09-30T11:43:41.821Z,24.78
2022-09-30T11:44:45.291Z,25.02
2022-09-30T11:46:08.817Z,25.03
2022-09-30T11:47:39.932Z,25.02
2022-09-30T11:49:08.227Z,24.82
2022-09-30T11:50:19.154Z,25.07
2022-09-30T11:51:26.729Z,24.82
2022-09-30T11:52:34.558Z,25.01
2022-09-30T11:53:48.171Z,25.00
2022-09-30T11:55:15.170Z,25.00
2022-09-30T11:56:35.771Z,25.07
2022-09-30T11:58:39.332Z,25.08
2022-09-30T11:59:54.140Z,25.11
2022-09-30T12:01:04.251Z,24.94
2022-09-30T12:02:33.579Z,24.83
2022-09-30T12:03:46.412Z,24.98
2022-09-30T12:04:50.960Z,24.62
2022-09-30T12:05:55.127Z,25.01
2022-09-30T12:07:06.007Z,24.49
2022-09-30T12:08:31.574Z,24.89
2022-09-30T12:09:44.663Z,25.03
2022-09-30T12:10:56.429Z,24.81
2022-09-30T12:12:12.398Z,25.01
2022-09-30T12:13:23.214Z,24.87
2022-09-30T12:14:37.158Z,24.58
2022-09-30T12:15:43.694Z,25.02
2022-09-30T12:16:48.183Z,24.75
2022-09-30T12:17:59.186Z,24.60
2022-09-30T12:19:12.855Z,24.72
2022-09-30T12:20:39.583Z,24.68
2022-09-30T12:21:53.235Z,25.06
2022-09-30T12:23:05.485Z,24.81
2022-09-30T12:24:17.661Z,24.77
2022-09-30T12:25:29.123Z,24.39
2022-09-30T12:26:31.625Z,24.60
2022-09-30T12:27:47.098Z,25.01
2022-09-30T12:29:16.746Z,24.82
2022-09-30T12:30:23.096Z,25.06
2022-09-30T12:31:37.641Z,25.02
2022-09-30T12:33:11.536Z,25.04
2022-09-30T12:34:31.330Z,25.09
2022-09-30T12:35:56.497Z,25.07
2022-09-30T12:37:22.865Z,24.74
2022-09-30T12:38:52.135Z,25.12
2022-09-30T12:40:03.027Z,25.10
2022-09-30T12:41:07.868Z,25.07
2022-09-30T12:42:35.288Z,24.20
2022-09-30T12:44:12.528Z,25.08
2022-09-30T12:45:38.093Z,25.10
2022-09-30T12:47:13.782Z,25.12
2022-09-30T12:48:21.045Z,24.96
2022-09-30T12:49:27.082Z,24.92
2022-09-30T12:50:41.458Z,24.62
2022-09-30T12:51:45.573Z,25.04
2022-09-30T12:52:48.406Z,24.82
2022-09-30T12:53:56.964Z,25.01
2022-09-30T12:55:06.106Z,24.90
2022-09-30T12:56:13.357Z,24.76
2022-09-30T12:57:21.357Z,24.60
2022-09-30T12:58:30.598Z,25.02
2022-09-30T12:59:36.309Z,24.88
2022-09-30T13:00:38.714Z,24.37
2022-09-30T13:01:42.527Z,24.77
2022-09-30T13:02:49.279Z,25.01
2022-09-30T13:04:00.181Z,25.04
2022-09-30T13:05:26.795Z,25.08
2022-09-30T13:06:48.584Z,25.12
2022-09-30T13:08:05.168Z,25.11
2022-09-30T13:09:19.754Z,25.11
2022-09-30T13:10:30.735Z,24.59
2022-09-30T13:11:34.125Z,25.09
2022-09-30T13:12:45.769Z,25.07
2022-09-30T13:14:36.040Z,25.10
2022-09-30T13:15:42.351Z,25.05
2022-09-30T13:17:02.196Z,25.14
2022-09-30T13:18:25.375Z,25.16
2022-09-30T13:19:44.690Z,25.13
2022-09-30T13:21:04.528Z,25.15
2022-09-30T13:22:18.724Z,25.13
2022-09-30T13:23:40.779Z,25.15
2022-09-30T13:25:12.912Z,25.18
2022-09-30T13:26:27.355Z,25.16
2022-09-30T13:27:40.333Z,24.93
2022-09-30T13:28:42.227Z,24.85
2022-09-30T13:29:48.499Z,24.62
2022-09-30T13:30:50.403Z,24.98
2022-09-30T13:31:52.347Z,25.03
2022-09-30T13:33:02.421Z,25.06
2022-09-30T13:34:11.388Z,25.07
2022-09-30T13:35:32.931Z,25.04
2022-09-30T13:36:40.315Z,25.11
2022-09-30T13:37:42.086Z,24.90
2022-09-30T13:38:43.882Z,24.30
2022-09-30T13:39:50.083Z,24.09
2022-09-30T13:41:03.683Z,24.68
2022-09-30T13:42:20.447Z,25.11
2022-09-30T13:43:26.321Z,25.12
2022-09-30T13:44:36.081Z,24.99
2022-09-30T13:45:39.880Z,24.87
2022-09-30T13:46:50.045Z,25.08
2022-09-30T13:48:07.412Z,25.11
2022-09-30T13:49:33.080Z,25.12
2022-09-30T13:50:42.515Z,24.97
2022-09-30T13:51:44.892Z,24.82
2022-09-30T13:52:53.775Z,24.49
2022-09-30T13:54:00.432Z,24.96
2022-09-30T13:55:17.387Z,24.75
2022-09-30T13:56:21.314Z,24.93
2022-09-30T13:57:36.045Z,24.94
2022-09-30T13:58:43.924Z,25.12
2022-09-30T13:59:56.864Z,25.12
2022-09-30T14:01:08.483Z,24.98
2022-09-30T14:02:22.244Z,25.13
2022-09-30T14:03:39.380Z,25.16
2022-09-30T14:04:56.790Z,24.96
2022-09-30T14:06:36.918Z,25.20
2022-09-30T14:08:06.191Z,25.23
2022-09-30T14:09:15.025Z,25.06
2022-09-30T14:10:48.817Z,25.18
2022-09-30T14:12:01.351Z,25.20
2022-09-30T14:13:34.336Z,25.21
2022-09-30T14:15:17.434Z,25.10
2022-09-30T14:16:53.190Z,25.17
2022-09-30T14:18:32.688Z,25.12
2022-09-30T14:20:02.707Z,25.12
2022-09-30T14:21:14.068Z,25.24
2022-09-30T14:22:16.632Z,25.13
2022-09-30T14:23:20.410Z,25.13
2022-09-30T14:24:24.123Z,25.12
2022-09-30T14:25:26.072Z,24.95
2022-09-30T14:26:57.560Z,24.87
2022-09-30T14:28:11.390Z,25.00
2022-09-30T14:29:34.870Z,25.13
2022-09-30T14:31:07.200Z,24.68
2022-09-30T14:32:18.806Z,24.99
2022-09-30T14:33:27.492Z,25.04
2022-09-30T14:34:29.687Z,24.94
2022-09-30T14:35:34.019Z,24.89
2022-09-30T14:36:35.842Z,24.99
2022-09-30T14:37:43.020Z,24.17
2022-09-30T14:38:48.997Z,24.74
2022-09-30T14:39:51.001Z,24.90
2022-09-30T14:40:56.385Z,24.96
2022-09-30T14:42:04.514Z,24.87
2022-09-30T14:43:13.025Z,25.09
2022-09-30T14:44:17.981Z,24.74
2022-09-30T14:45:29.195Z,24.95
2022-09-30T14:46:46.295Z,24.98
2022-09-30T14:47:52.351Z,24.96
2022-09-30T14:48:57.256Z,24.89
2022-09-30T14:50:01.420Z,24.44
2022-09-30T14:51:10.082Z,24.91
2022-09-30T14:52:38.342Z,25.13
2022-09-30T14:53:43.499Z,25.13
2022-09-30T14:54:47.860Z,24.50
2022-09-30T14:55:50.186Z,25.09